Terminal Aerodrome Forecast
Issued by NWS Sterling, VA

Current Version | Previous Version | Text Only | Print | Product List | Glossary Off
Versions: 1 2 3 4 5 6 7 8 9 10 11 12 13 14 15 16 17 18 19 20 21 22 23 24

000
FTUS41 KLWX 212340
TAFDCA
TAF
KDCA 212340Z 2200/2224 19008KT P6SM BKN250
     FM220300 20008KT P6SM BKN100
     FM220800 24006KT P6SM -RA BKN035
     FM220900 25005KT P6SM -RA BKN025
     FM221100 29005KT P6SM BKN060
     FM221300 31009KT P6SM BKN090
     FM221400 32016G30KT P6SM SCT250=

USA.gov is the U.S. government's official web portal to all federal, state and local government web resources and services.